Historyczne dane pomiarowe

Dodano dane terminowe – wersja testowa.

Dane z okresu 1951-2019

Wersja bazy: 1.34 [2019-03-16, lista zmian], aktualizacja planowana na 2019-04-15

Dane meteo z obszaru Polski uzyskane na podstawie danych udostępnionych przez Instytut Meteorologii i Gospodarki Wodnej – Państwowy Instytut Badawczy.

 

Wybierz Datę:    

       

TemperaturaWilgotnośćWiatrCiśnienieOpadyŚniegCzas trwania zjawisk
 Stacja t tx tn tng RH VA  wxwx mslp ppp RRR   cm mm wxwxwxwxwxwxwx
2019-06-13 23.0 31.2 14.9--- 0.0 1.7---- 0.0------------
2019-06-12 22.9 30.2 14.4--- 0.3 2.3---- 0.0------------
2019-06-11 23.1 29.1 15.6--- 0.0 3.3---- 0.0------------
2019-06-10 21.9 29.3 13.6--- 0.0 1.0---- 0.0------------
2019-06-09 20.1 25.7 15.5--- 0.3 1.0---- 0.0------------
2019-06-08 20.6 27.9 13.3--- 2.3 2.0---- 0.5------------
2019-06-07 17.3 23.8 11.4--- 4.3 1.0---- 25.5------------
2019-06-06 17.8 23.0 11.3--- 1.3 1.7---- 0.1------------
2019-06-05 18.7 25.0 12.3--- 0.7 2.0---- 0.0------------
2019-06-04 18.7 26.0 11.7--- 2.0 0.3---- 0.4------------
2019-06-03 17.6 25.8 9.4--- 0.3 1.0---- 0.0------------
2019-06-02 17.3 24.1 10.0--- 0.7 1.3---- 0.0------------
2019-06-01 13.9 23.1 5.9--- 3.3 1.0---- 0.0------------
2019-05-31 13.0 19.1 8.5--- 4.0 1.0---- 0.0------------
2019-05-30 9.2 10.5 8.0--- 8.0 2.0---- 14.5------------
2019-05-29 11.9 15.0 9.4--- 8.0 2.3---- 11.3------------
2019-05-28 16.1 20.5 12.7--- 6.7 2.0---- 2.0------------
2019-05-27 16.6 23.6 10.2--- 3.7 2.3---- 0.2------------
2019-05-26 14.8 23.5 8.0--- 1.7 0.7---- 0.4------------
2019-05-25 15.3 21.1 11.0--- 3.0 1.0---- 0.0------------
2019-05-24 11.6 13.2 9.8--- 8.0 1.3---- 0.5------------
2019-05-23 11.8 14.2 10.4--- 8.0 1.0---- 40.1------------
2019-05-22 13.3 16.5 11.3--- 8.0 1.3---- 23.6------------
2019-05-21 12.1 16.4 8.5--- 8.0 0.7---- 19.8------------
2019-05-20 16.3 20.5 11.5--- 1.0 3.3---- 0.0------------
2019-05-19 15.4 23.3 7.2--- 0.3 1.3---- 0.9------------
2019-05-18 15.3 23.1 8.5--- 1.3 1.0---- 0.0------------
2019-05-17 14.1 19.8 8.4--- 3.0 2.3---- 0.0------------
2019-05-16 12.0 17.5 8.1--- 6.7 1.0---- 0.4------------
2019-05-15 7.2 9.2 5.2--- 8.0 1.7---- 4.8------------
2019-05-14 3.6 7.4 0.5--- 8.0 2.7---- 15.5------------
2019-05-13 7.8 11.0 6.0--- 8.0 3.7---- 6.8------------
2019-05-12 12.1 20.5 6.5--- 6.3 1.7---- 0.0------------
2019-05-11 12.0 18.4 6.9--- 2.3 0.7---- 0.0------------
2019-05-10 11.1 16.8 6.8--- 6.0 1.3---- 3.0------------
2019-05-09 8.3 10.4 6.0--- 8.0 3.3---- 3.7------------
2019-05-08 7.1 13.4 -0.4--- 3.3 2.3---- 0.0------------
2019-05-07 7.1 10.2 4.0--- 6.3 3.3---- 0.1------------
2019-05-06 4.5 6.2 3.5--- 8.0 3.7---- 0.9------------
2019-05-05 5.3 8.4 3.3--- 8.0 4.3---- 9.8------------
2019-05-04 7.9 13.2 3.5--- 4.3 1.3---- 0.9------------
2019-05-03 9.0 13.7 5.5--- 7.0 0.7---- 3.5------------
2019-05-02 12.5 19.8 6.1--- 2.7 0.7---- 0.0------------
2019-05-01 11.2 15.7 8.6--- 5.3 2.7---- 1.4------------
2019-04-30 10.0 11.6 8.8--- 8.0 1.7---- 14.1------------
2019-04-29 9.3 11.7 7.0--- 8.0 0.0---- 0.8------------
2019-04-28 9.1 11.2 7.9--- 8.0 2.0---- 20.2------------
2019-04-27 13.8 21.1 10.1--- 8.0 1.7---- 24.1------------
2019-04-26 16.3 26.7 5.9--- 0.7 1.7---- 0.0------------
2019-04-25 15.7 22.9 6.6--- 0.3 4.0---- 0.0------------
2019-04-24 11.8 15.2 8.8--- 6.0 4.3---- 1.2------------
2019-04-23 10.3 14.5 6.6--- 6.3 5.3---- 0.0------------
2019-04-22 8.6 14.2 4.3--- 6.7 0.7---- 5.1------------
2019-04-21 8.7 17.1 -0.3--- 2.0 2.0---- 0.0------------
2019-04-20 9.1 19.3 -1.3--- 0.0 1.3---- 0.0------------
2019-04-19 7.8 17.8 -1.1--- 0.3 1.0---- 0.0------------
2019-04-18 8.1 16.8 0.9--- 3.7 1.0---- 0.0------------
2019-04-17 6.4 10.4 3.3--- 4.7 2.0---- 0.0------------
2019-04-16 4.5 12.4 -4.4--- 0.3 2.0---- 0.0------------
2019-04-15 3.6 11.0 -3.1--- 0.0 1.0---- 0.0------------
172.9 ms

 

Źródłem pochodzenia danych jest Instytut Meteorologii i Gospodarki Wodnej – Państwowy Instytut Badawczy. Dane Instytutu Meteorologii i Gospodarki Wodnej – Państwowego Instytutu Badawczego zostały przetworzone.

Dane źródłowe można odnaleźć na stronie https://dane.imgw.pl